首页
METAR-TAF:

METAR-TAF

机场 :

多特蒙德机场

多特蒙德, 德国

纬度: 51-31N, 经度: 007-37E, 海拔: 127米

当前天气观测

该预报发布于37分钟前的10:50 UTC
风速7节,风向西转西南,在西南西转西北之间变化
温度 21°C
湿度 56%
气压 1020 hPa
能见度10公里或以上
散云层高于4900英尺

METAR: EDLW 161050Z 25007KT 220V290 9999 SCT049 21/12 Q1020

时间: 13:27 (11:27 UTC)

预报

该预报发布于6小时和27分钟前的05:00 UTC
预报有效从16日的 06点(UTC)到 17日的 06点(UTC)
风速6节,风向
能见度10公里或以上
散云层高于4000英尺
成为
从 16日的 06点(UTC)到 16日的 09点(UTC)
风速8节,风向西转西南
成为
从 16日的 17点(UTC)到 16日的 20点(UTC)
风速4节,风向

TAF: EDLW 160500Z 1606/1706 19006KT 9999 SCT040 BECMG 1606/1609 25008KT BECMG 1617/1620 17004KT

超过4000个机场的气象观测和天气预报(METAR&TAF报告)。

可查询的气象台以黄色和红色小点在地图上表示。

将鼠标移到小点上方,可查看气象台名称。

然后点击查看天气观测和预报。

如需切换地图:点击带黑十字的绿色按钮放大地图;点击带横线的绿色按钮缩小地图;或者点击绿色箭头查看邻近地区的地图。


METAR-TAF: